createdAt,value
2024-04-25T00:02:35.136Z,90
2024-04-25T00:22:35.221Z,91.4
2024-04-25T00:42:35.945Z,94.8
2024-04-25T01:02:35.320Z,95.4
2024-04-25T01:22:36.248Z,96.4
2024-04-25T01:42:35.281Z,97
2024-04-25T02:02:35.426Z,97.4
2024-04-25T02:22:35.517Z,97.3
2024-04-25T02:42:35.470Z,97.3
2024-04-25T03:02:36.391Z,97.2
2024-04-25T03:22:35.497Z,97
2024-04-25T03:42:36.372Z,97
2024-04-25T04:02:35.688Z,97
2024-04-25T04:22:36.072Z,97
2024-04-25T04:42:35.729Z,97.1
2024-04-25T05:02:35.934Z,97.2
2024-04-25T05:22:35.750Z,96.7
2024-04-25T05:42:35.887Z,95.6
2024-04-25T06:02:35.944Z,94.9
2024-04-25T06:22:36.242Z,92.8
2024-04-25T06:42:36.044Z,91.9
2024-04-25T07:02:36.082Z,90.7
2024-04-25T07:22:36.023Z,89.5
2024-04-25T07:42:36.117Z,89.2
2024-04-25T08:02:36.208Z,87.6
2024-04-25T08:42:36.242Z,81.4
2024-04-25T09:02:36.331Z,75.1
2024-04-25T09:22:39.271Z,80.9
2024-04-25T09:42:37.058Z,81.6
2024-04-25T10:02:36.434Z,76
2024-04-25T10:22:37.473Z,83.5
2024-04-25T10:42:36.641Z,95.8
2024-04-25T11:02:36.594Z,97.3
2024-04-25T11:22:42.030Z,97.7
2024-04-25T11:42:36.788Z,97.8
2024-04-25T12:02:36.755Z,97.7
2024-04-25T12:22:36.716Z,94.7
2024-04-25T12:42:36.741Z,89.5
2024-04-25T13:02:36.761Z,59.1
2024-04-25T13:22:36.940Z,55.6
2024-04-25T13:42:36.803Z,62.7
2024-04-25T14:02:36.833Z,67.8
2024-04-25T14:22:37.045Z,71.2
2024-04-25T14:42:37.840Z,71.7
2024-04-25T15:02:36.957Z,64
2024-04-25T15:22:36.935Z,64.6
2024-04-25T15:42:37.066Z,67.4
2024-04-25T16:02:38.410Z,64
2024-04-25T16:22:37.136Z,61.7
2024-04-25T16:42:37.183Z,67.3
2024-04-25T17:02:37.304Z,67.3
2024-04-25T17:22:37.238Z,65.6
2024-04-25T17:42:37.435Z,65.7
2024-04-25T18:02:37.339Z,66.4
2024-04-25T18:22:37.356Z,67
2024-04-25T18:42:37.296Z,68.5
2024-04-25T19:02:37.388Z,68.5
2024-04-25T19:22:37.729Z,71.5
2024-04-25T19:42:37.622Z,74.6
2024-04-25T20:02:37.719Z,75.3
2024-04-25T20:22:37.998Z,77.9
2024-04-25T20:42:38.177Z,80.1
2024-04-25T21:02:38.351Z,81.7
2024-04-25T21:22:37.684Z,82.4
2024-04-25T21:42:37.749Z,84
2024-04-25T22:02:37.967Z,83.6
2024-04-25T22:22:37.964Z,83.3
2024-04-25T22:42:37.979Z,83.2
2024-04-25T23:02:38.086Z,84.8
2024-04-25T23:22:38.048Z,83.8
2024-04-25T23:42:38.016Z,85.6
